createdAt,value
2022-08-12T00:01:15.772Z,93.20
2022-08-12T00:04:05.891Z,93.10
2022-08-12T00:06:53.951Z,92.90
2022-08-12T00:09:40.055Z,93.70
2022-08-12T00:12:26.693Z,93.70
2022-08-12T00:15:12.668Z,93.70
2022-08-12T00:18:02.635Z,93.80
2022-08-12T00:20:49.283Z,94.20
2022-08-12T00:23:35.302Z,94.00
2022-08-12T00:26:24.372Z,93.60
2022-08-12T00:29:13.292Z,93.90
2022-08-12T00:32:01.055Z,93.80
2022-08-12T00:34:52.593Z,93.80
2022-08-12T00:37:40.875Z,93.80
2022-08-12T00:40:31.713Z,92.70
2022-08-12T00:43:00.981Z,92.80
2022-08-12T00:45:51.163Z,92.70
2022-08-12T00:48:20.833Z,92.70
2022-08-12T00:50:55.806Z,92.70
2022-08-12T00:53:24.667Z,93.50
2022-08-12T00:55:57.511Z,93.70
2022-08-12T00:58:32.706Z,94.10
2022-08-12T01:01:05.909Z,94.20
2022-08-12T01:03:56.207Z,94.50
2022-08-12T01:06:53.931Z,94.30
2022-08-12T01:09:41.907Z,94.50
2022-08-12T01:12:12.933Z,94.80
2022-08-12T01:14:43.379Z,95.30
2022-08-12T01:17:11.889Z,95.40
2022-08-12T01:19:41.553Z,95.70
2022-08-12T01:22:25.823Z,95.70
2022-08-12T01:25:19.280Z,96.50
2022-08-12T01:27:52.145Z,96.80
2022-08-12T01:30:22.083Z,97.10
2022-08-12T01:32:53.479Z,97.20
2022-08-12T01:35:24.513Z,97.70
2022-08-12T01:37:58.936Z,98.30
2022-08-12T01:40:37.254Z,97.90
2022-08-12T01:43:09.620Z,98.10
2022-08-12T01:45:47.031Z,98.10
2022-08-12T01:48:27.500Z,97.50
2022-08-12T01:51:06.458Z,97.80
2022-08-12T01:54:04.416Z,98.10
2022-08-12T01:56:49.052Z,98.40
2022-08-12T01:59:43.319Z,99.00
2022-08-12T02:02:20.393Z,99.30
2022-08-12T02:05:35.485Z,99.30
2022-08-12T02:08:45.635Z,99.50
2022-08-12T02:11:23.938Z,99.60
2022-08-12T02:14:43.241Z,99.80
2022-08-12T02:18:00.147Z,99.90
2022-08-12T02:20:51.810Z,99.90
2022-08-12T02:23:27.902Z,99.90
2022-08-12T02:26:02.361Z,99.90
2022-08-12T02:28:31.981Z,99.90
2022-08-12T02:31:08.866Z,99.90
2022-08-12T02:33:38.883Z,99.90
2022-08-12T02:36:08.651Z,99.90
2022-08-12T02:38:37.746Z,99.90
2022-08-12T02:41:10.897Z,99.90
2022-08-12T02:43:47.125Z,99.90
2022-08-12T02:46:24.914Z,99.90
2022-08-12T02:49:00.719Z,99.90
2022-08-12T02:51:34.385Z,99.90
2022-08-12T02:54:07.315Z,99.90
2022-08-12T02:56:40.516Z,99.90
2022-08-12T02:59:12.169Z,99.90
2022-08-12T03:01:49.728Z,99.90
2022-08-12T03:04:27.429Z,99.90
2022-08-12T03:07:10.483Z,99.90
2022-08-12T03:10:04.480Z,99.90
2022-08-12T03:12:42.806Z,99.90
2022-08-12T03:15:22.946Z,99.90
2022-08-12T03:18:25.486Z,99.90
2022-08-12T03:20:50.329Z,99.90
2022-08-12T03:23:29.695Z,99.90
2022-08-12T03:26:02.436Z,99.90
2022-08-12T03:28:53.928Z,99.90
2022-08-12T03:31:25.887Z,99.90
2022-08-12T03:34:03.094Z,99.90
2022-08-12T03:36:35.221Z,99.90
2022-08-12T03:39:35.475Z,99.90
2022-08-12T03:42:25.662Z,99.90
2022-08-12T03:45:51.724Z,99.90
2022-08-12T03:48:39.671Z,99.90
2022-08-12T03:51:29.299Z,99.90
2022-08-12T03:54:16.149Z,99.90
2022-08-12T03:57:02.221Z,99.90
2022-08-12T03:59:48.744Z,99.90
2022-08-12T04:02:18.181Z,99.90
2022-08-12T04:04:47.284Z,99.90
2022-08-12T04:07:19.771Z,99.90
2022-08-12T04:09:48.444Z,99.90
2022-08-12T04:12:34.431Z,99.90
2022-08-12T04:15:04.651Z,99.90
2022-08-12T04:17:34.943Z,99.90
2022-08-12T04:20:03.719Z,99.90
2022-08-12T04:22:34.602Z,99.90
2022-08-12T04:25:04.481Z,99.90
2022-08-12T04:27:35.328Z,99.90
2022-08-12T04:30:29.243Z,99.90
2022-08-12T04:32:54.607Z,99.90
2022-08-12T04:35:22.983Z,99.90
2022-08-12T04:37:59.747Z,99.90
2022-08-12T04:40:33.276Z,99.90
2022-08-12T04:43:02.430Z,99.90
2022-08-12T04:45:33.026Z,99.90
2022-08-12T04:48:02.904Z,99.90
2022-08-12T04:50:34.687Z,99.90
2022-08-12T04:53:08.949Z,99.90
2022-08-12T04:55:40.229Z,99.90
2022-08-12T04:58:10.256Z,99.90
2022-08-12T05:00:40.041Z,99.90
2022-08-12T05:03:09.235Z,99.90
2022-08-12T05:05:41.156Z,99.90
2022-08-12T05:08:15.807Z,99.60
2022-08-12T05:10:46.283Z,98.00
2022-08-12T05:13:20.249Z,96.10
2022-08-12T05:16:04.200Z,95.50
2022-08-12T05:18:35.393Z,94.90
2022-08-12T05:21:10.073Z,94.20
2022-08-12T05:23:42.885Z,93.50
2022-08-12T05:26:11.909Z,92.10
2022-08-12T05:28:41.192Z,90.90
2022-08-12T05:31:11.186Z,90.90
2022-08-12T05:33:40.789Z,90.40
2022-08-12T05:36:13.861Z,90.00
2022-08-12T05:38:57.697Z,87.40
2022-08-12T05:41:29.063Z,85.30
2022-08-12T05:44:01.168Z,83.70
2022-08-12T05:46:32.058Z,82.00
2022-08-12T05:49:01.553Z,80.00
2022-08-12T05:51:41.291Z,79.40
2022-08-12T05:54:12.500Z,77.40
2022-08-12T05:56:41.933Z,75.30
2022-08-12T05:59:12.458Z,75.50
2022-08-12T06:02:10.842Z,74.50
2022-08-12T06:04:33.164Z,72.50
2022-08-12T06:07:02.627Z,71.50
2022-08-12T06:09:52.347Z,69.90
2022-08-12T06:12:23.291Z,70.00
2022-08-12T06:14:51.647Z,66.90
2022-08-12T06:17:19.966Z,64.60
2022-08-12T06:20:26.973Z,63.70
2022-08-12T06:22:37.351Z,60.60
2022-08-12T06:25:09.115Z,60.50
2022-08-12T06:28:05.824Z,61.20
2022-08-12T06:30:39.159Z,62.30
2022-08-12T06:33:55.247Z,60.00
2022-08-12T06:35:59.053Z,60.10
2022-08-12T06:38:30.651Z,59.80
2022-08-12T06:41:20.272Z,61.20
2022-08-12T06:44:05.613Z,61.60
2022-08-12T06:46:38.644Z,62.20
2022-08-12T06:49:08.612Z,64.20
2022-08-12T06:51:36.921Z,63.90
2022-08-12T06:54:05.271Z,67.80
2022-08-12T06:59:24.892Z,69.80
2022-08-12T07:01:54.989Z,69.20
2022-08-12T07:04:36.201Z,65.60
2022-08-12T07:07:07.090Z,63.50
2022-08-12T07:10:06.558Z,62.40
2022-08-12T07:12:28.008Z,62.60
2022-08-12T07:14:59.461Z,63.20
2022-08-12T07:17:35.833Z,64.60
2022-08-12T07:20:06.797Z,64.50
2022-08-12T07:22:35.492Z,61.80
2022-08-12T07:25:22.319Z,61.80
2022-08-12T07:27:56.151Z,61.30
2022-08-12T07:30:25.282Z,60.20
2022-08-12T07:32:57.471Z,58.80
2022-08-12T07:35:31.459Z,59.00
2022-08-12T07:38:02.654Z,60.00
2022-08-12T07:40:31.551Z,59.10
2022-08-12T07:43:01.608Z,58.30
2022-08-12T07:45:30.585Z,58.20
2022-08-12T07:47:59.426Z,59.80
2022-08-12T07:50:28.065Z,58.70
2022-08-12T07:52:56.408Z,58.20
2022-08-12T07:55:25.017Z,59.00
2022-08-12T07:57:58.609Z,57.60
2022-08-12T08:00:31.398Z,56.40
2022-08-12T08:03:00.226Z,55.70
2022-08-12T08:05:35.705Z,55.50
2022-08-12T08:08:13.697Z,55.40
2022-08-12T08:10:42.554Z,53.80
2022-08-12T08:13:11.843Z,53.00
2022-08-12T08:16:02.380Z,53.70
2022-08-12T08:18:31.340Z,54.40
2022-08-12T08:21:00.064Z,54.90
2022-08-12T08:23:55.840Z,53.90
2022-08-12T08:26:27.010Z,54.00
2022-08-12T08:28:55.968Z,54.00
2022-08-12T08:31:25.809Z,53.70
2022-08-12T08:34:09.614Z,52.50
2022-08-12T08:36:44.859Z,51.60
2022-08-12T08:39:17.745Z,51.90
2022-08-12T08:42:14.254Z,53.70
2022-08-12T08:44:49.800Z,54.50
2022-08-12T08:47:28.198Z,55.40
2022-08-12T08:50:00.996Z,56.60
2022-08-12T08:52:39.316Z,57.20
2022-08-12T08:55:11.280Z,57.20
2022-08-12T08:57:44.108Z,56.40
2022-08-12T09:00:18.332Z,56.00
2022-08-12T09:02:59.323Z,55.10
2022-08-12T09:05:43.112Z,55.30
2022-08-12T09:08:23.085Z,53.90
2022-08-12T09:14:11.388Z,55.30
2022-08-12T09:16:37.903Z,55.40
2022-08-12T09:19:27.292Z,56.50
2022-08-12T09:21:57.271Z,56.30
2022-08-12T09:24:30.742Z,57.20
2022-08-12T09:27:00.743Z,56.40
2022-08-12T09:30:10.663Z,55.90
2022-08-12T09:32:56.635Z,56.60
2022-08-12T09:35:18.420Z,57.00
2022-08-12T09:37:57.866Z,56.00
2022-08-12T09:40:58.084Z,55.00
2022-08-12T09:43:35.377Z,54.20
2022-08-12T09:46:20.332Z,54.80
2022-08-12T09:48:56.795Z,54.80
2022-08-12T09:51:37.418Z,55.90
2022-08-12T09:54:33.562Z,56.40
2022-08-12T09:57:03.928Z,55.80
2022-08-12T10:00:16.138Z,56.00
2022-08-12T10:02:58.715Z,55.60
2022-08-12T10:06:27.004Z,55.50
2022-08-12T10:08:22.729Z,54.10
2022-08-12T10:11:09.507Z,53.70
2022-08-12T10:13:52.678Z,53.80
2022-08-12T10:16:23.299Z,54.10
2022-08-12T10:18:54.483Z,54.00
2022-08-12T10:21:35.810Z,53.60
2022-08-12T10:24:10.957Z,53.80
2022-08-12T10:26:59.516Z,54.30
2022-08-12T10:30:37.004Z,54.60
2022-08-12T10:32:56.119Z,54.90
2022-08-12T10:35:20.183Z,55.00
2022-08-12T10:38:34.150Z,55.30
2022-08-12T10:40:59.476Z,57.10
2022-08-12T10:43:54.215Z,58.40
2022-08-12T10:46:30.450Z,58.50
2022-08-12T10:49:06.712Z,58.60
2022-08-12T10:52:32.459Z,59.60
2022-08-12T10:54:43.433Z,59.10
2022-08-12T10:57:18.405Z,59.90
2022-08-12T11:00:33.903Z,60.00
2022-08-12T11:04:18.134Z,59.70
2022-08-12T11:07:03.543Z,59.60
2022-08-12T11:08:43.181Z,57.90
2022-08-12T11:11:17.947Z,57.40
2022-08-12T11:14:47.871Z,56.70
2022-08-12T11:17:34.317Z,57.10
2022-08-12T11:19:46.773Z,57.10
2022-08-12T11:22:18.230Z,57.00
2022-08-12T11:24:53.823Z,57.20
2022-08-12T11:27:23.769Z,57.50
2022-08-12T11:30:01.738Z,57.80
2022-08-12T11:32:38.863Z,57.10
2022-08-12T11:35:11.645Z,57.20
2022-08-12T11:37:59.088Z,57.00
2022-08-12T11:40:29.379Z,56.40
2022-08-12T11:43:19.019Z,56.40
2022-08-12T11:45:53.341Z,56.40
2022-08-12T11:48:27.061Z,56.50
2022-08-12T11:50:57.000Z,55.90
2022-08-12T11:53:59.221Z,56.30
2022-08-12T11:56:13.941Z,56.50
2022-08-12T12:01:58.803Z,57.00
2022-08-12T12:04:29.048Z,55.90
2022-08-12T12:07:06.786Z,55.80
2022-08-12T12:09:51.863Z,56.10
2022-08-12T12:12:25.232Z,55.50
2022-08-12T12:14:54.820Z,55.90
2022-08-12T12:17:26.466Z,55.70
2022-08-12T12:20:10.016Z,56.80
2022-08-12T12:22:45.243Z,55.40
2022-08-12T12:25:14.531Z,55.80
2022-08-12T12:28:04.646Z,55.30
2022-08-12T12:30:35.107Z,55.10
2022-08-12T12:33:06.412Z,55.70
2022-08-12T12:36:16.556Z,54.80
2022-08-12T12:38:25.568Z,55.10
2022-08-12T12:40:54.913Z,55.40
2022-08-12T12:43:28.726Z,55.00
2022-08-12T12:46:11.296Z,55.50
2022-08-12T12:48:44.268Z,55.40
2022-08-12T12:51:48.117Z,55.40
2022-08-12T12:54:09.930Z,55.90
2022-08-12T12:56:42.281Z,56.30
2022-08-12T12:59:55.203Z,56.20
2022-08-12T13:02:08.114Z,56.30
2022-08-12T13:04:38.647Z,56.60
2022-08-12T13:07:07.875Z,56.70
2022-08-12T13:09:36.993Z,56.40
2022-08-12T13:12:10.657Z,57.30
2022-08-12T13:14:39.572Z,57.20
2022-08-12T13:17:11.218Z,56.40
2022-08-12T13:19:49.904Z,55.90
2022-08-12T13:22:19.994Z,55.60
2022-08-12T13:24:54.805Z,55.70
2022-08-12T13:27:35.348Z,56.20
2022-08-12T13:30:12.989Z,55.80
2022-08-12T13:32:57.178Z,55.80
2022-08-12T13:35:33.339Z,56.10
2022-08-12T13:38:26.546Z,55.90
2022-08-12T13:41:02.881Z,56.70
2022-08-12T13:43:40.278Z,56.80
2022-08-12T13:46:11.900Z,56.90
2022-08-12T13:48:45.222Z,56.70
2022-08-12T13:51:24.170Z,56.50
2022-08-12T13:53:59.260Z,56.80
2022-08-12T13:56:35.182Z,56.40
2022-08-12T13:59:08.653Z,56.60
2022-08-12T14:01:40.421Z,57.20
2022-08-12T14:04:11.433Z,57.00
2022-08-12T14:06:43.433Z,57.40
2022-08-12T14:09:17.680Z,58.10
2022-08-12T14:11:59.076Z,57.70
2022-08-12T14:14:31.333Z,58.20
2022-08-12T14:17:05.606Z,58.20
2022-08-12T14:19:35.946Z,57.50
2022-08-12T14:22:10.377Z,57.40
2022-08-12T14:24:41.101Z,57.80
2022-08-12T14:27:11.366Z,57.50
2022-08-12T14:30:06.165Z,57.30
2022-08-12T14:32:34.944Z,57.70
2022-08-12T14:35:09.694Z,58.10
2022-08-12T14:37:56.899Z,58.60
2022-08-12T14:40:29.107Z,58.50
2022-08-12T14:42:59.327Z,58.80
2022-08-12T14:45:44.980Z,57.40
2022-08-12T14:48:24.498Z,57.80
2022-08-12T14:52:10.296Z,57.60
2022-08-12T14:55:24.688Z,58.10
2022-08-12T14:57:01.332Z,57.30
2022-08-12T14:59:56.501Z,57.40
2022-08-12T15:02:26.495Z,57.60
2022-08-12T15:04:58.866Z,57.20
2022-08-12T15:07:33.785Z,57.50
2022-08-12T15:10:31.816Z,58.00
2022-08-12T15:13:07.170Z,58.00
2022-08-12T15:15:43.843Z,58.00
2022-08-12T15:18:20.994Z,58.00
2022-08-12T15:20:51.369Z,58.00
2022-08-12T15:23:21.982Z,58.30
2022-08-12T15:25:59.685Z,58.70
2022-08-12T15:28:32.273Z,58.40
2022-08-12T15:31:02.271Z,58.10
2022-08-12T15:33:45.114Z,57.80
2022-08-12T15:36:19.200Z,58.20
2022-08-12T15:38:48.145Z,58.80
2022-08-12T15:41:22.170Z,59.10
2022-08-12T15:44:17.073Z,59.30
2022-08-12T15:46:41.354Z,59.50
2022-08-12T15:49:16.723Z,59.10
2022-08-12T15:51:58.132Z,58.50
2022-08-12T15:54:34.512Z,59.00
2022-08-12T15:57:10.590Z,59.00
2022-08-12T16:00:00.232Z,59.40
2022-08-12T16:02:50.114Z,59.30
2022-08-12T16:06:12.195Z,59.20
2022-08-12T16:08:18.379Z,59.40
2022-08-12T16:10:53.018Z,59.40
2022-08-12T16:13:32.476Z,59.60
2022-08-12T16:16:12.308Z,60.00
2022-08-12T16:18:58.606Z,59.70
2022-08-12T16:21:52.127Z,59.60
2022-08-12T16:24:18.543Z,59.20
2022-08-12T16:26:51.309Z,59.10
2022-08-12T16:29:38.596Z,59.00
2022-08-12T16:32:21.070Z,59.30
2022-08-12T16:34:55.919Z,59.80
2022-08-12T16:37:26.523Z,59.90
2022-08-12T16:40:06.002Z,60.10
2022-08-12T16:42:39.375Z,59.80
2022-08-12T16:45:14.174Z,60.30
2022-08-12T16:47:58.659Z,60.20
2022-08-12T16:50:30.757Z,60.50
2022-08-12T16:53:02.471Z,60.70
2022-08-12T16:55:38.230Z,60.60
2022-08-12T16:58:27.917Z,60.70
2022-08-12T17:01:02.139Z,60.90
2022-08-12T17:03:35.244Z,61.20
2022-08-12T17:06:09.013Z,61.70
2022-08-12T17:08:39.176Z,62.20
2022-08-12T17:11:17.875Z,62.30
2022-08-12T17:13:53.598Z,62.60
2022-08-12T17:16:24.342Z,62.90
2022-08-12T17:19:03.264Z,63.40
2022-08-12T17:21:41.240Z,63.80
2022-08-12T17:24:30.647Z,64.00
2022-08-12T17:27:09.478Z,63.90
2022-08-12T17:30:00.857Z,63.10
2022-08-12T17:32:35.799Z,63.00
2022-08-12T17:35:30.151Z,62.80
2022-08-12T17:38:11.837Z,63.30
2022-08-12T17:40:42.424Z,63.70
2022-08-12T17:43:57.756Z,63.90
2022-08-12T17:46:02.878Z,64.30
2022-08-12T17:48:38.235Z,64.50
2022-08-12T17:51:16.065Z,64.60
2022-08-12T17:54:11.030Z,64.80
2022-08-12T17:56:38.060Z,64.80
2022-08-12T17:59:12.676Z,65.30
2022-08-12T18:01:44.087Z,65.60
2022-08-12T18:04:23.221Z,65.80
2022-08-12T18:07:08.317Z,66.10
2022-08-12T18:09:41.044Z,66.60
2022-08-12T18:12:35.533Z,67.00
2022-08-12T18:15:08.528Z,67.50
2022-08-12T18:17:43.057Z,67.50
2022-08-12T18:20:18.410Z,67.90
2022-08-12T18:22:55.805Z,68.20
2022-08-12T18:26:14.168Z,68.50
2022-08-12T18:28:40.455Z,68.40
2022-08-12T18:31:13.279Z,68.80
2022-08-12T18:33:46.017Z,69.40
2022-08-12T18:36:22.279Z,69.90
2022-08-12T18:38:53.076Z,70.00
2022-08-12T18:41:33.714Z,70.30
2022-08-12T18:44:08.157Z,70.40
2022-08-12T18:46:54.107Z,70.60
2022-08-12T18:49:31.981Z,70.50
2022-08-12T18:52:11.545Z,70.50
2022-08-12T18:54:49.391Z,70.70
2022-08-12T18:58:05.805Z,71.00
2022-08-12T19:00:21.294Z,71.10
2022-08-12T19:02:53.955Z,71.40
2022-08-12T19:05:53.501Z,71.70
2022-08-12T19:08:16.324Z,71.80
2022-08-12T19:10:50.432Z,72.30
2022-08-12T19:13:39.862Z,73.20
2022-08-12T19:16:12.346Z,73.30
2022-08-12T19:18:44.977Z,73.40
2022-08-12T19:21:16.866Z,73.90
2022-08-12T19:24:12.391Z,73.60
2022-08-12T19:26:42.422Z,74.00
2022-08-12T19:29:12.029Z,74.40
2022-08-12T19:31:57.276Z,75.40
2022-08-12T19:37:26.626Z,77.50
2022-08-12T19:40:07.769Z,78.20
2022-08-12T19:42:44.400Z,78.80
2022-08-12T19:45:15.818Z,79.60
2022-08-12T19:47:46.553Z,80.30
2022-08-12T19:50:19.987Z,81.10
2022-08-12T19:52:53.058Z,82.30
2022-08-12T19:55:27.228Z,82.40
2022-08-12T19:58:02.710Z,83.10
2022-08-12T20:00:38.340Z,83.60
2022-08-12T20:03:08.566Z,84.20
2022-08-12T20:06:05.171Z,84.70
2022-08-12T20:08:37.467Z,85.30
2022-08-12T20:12:13.651Z,85.50
2022-08-12T20:14:01.100Z,86.00
2022-08-12T20:16:52.198Z,86.50
2022-08-12T20:19:24.548Z,86.80
2022-08-12T20:22:23.398Z,87.60
2022-08-12T20:24:55.094Z,88.30
2022-08-12T20:28:02.646Z,88.80
2022-08-12T20:30:18.088Z,89.10
2022-08-12T20:32:55.346Z,89.90
2022-08-12T20:36:06.195Z,90.30
2022-08-12T20:38:26.134Z,90.50
2022-08-12T20:40:55.726Z,90.80
2022-08-12T20:43:28.366Z,91.20
2022-08-12T20:46:00.796Z,91.50
2022-08-12T20:48:29.817Z,91.80
2022-08-12T20:51:04.305Z,92.10
2022-08-12T20:53:53.940Z,92.50
2022-08-12T20:56:30.388Z,93.00
2022-08-12T20:59:05.392Z,93.40
2022-08-12T21:01:46.781Z,93.60
2022-08-12T21:04:36.546Z,94.00
2022-08-12T21:07:08.971Z,94.10
2022-08-12T21:09:44.338Z,94.30
2022-08-12T21:12:27.384Z,94.90
2022-08-12T21:15:24.453Z,95.00
2022-08-12T21:18:11.569Z,95.30
2022-08-12T21:20:52.374Z,95.50
2022-08-12T21:23:22.845Z,95.70
2022-08-12T21:25:52.388Z,96.00
2022-08-12T21:28:30.693Z,96.40
2022-08-12T21:32:34.795Z,96.60
2022-08-12T21:34:08.874Z,96.90
2022-08-12T21:36:43.313Z,97.30
2022-08-12T21:39:21.137Z,97.50
2022-08-12T21:41:53.040Z,97.70
2022-08-12T21:44:24.411Z,97.90
2022-08-12T21:47:20.118Z,98.20
2022-08-12T21:50:02.140Z,98.50
2022-08-12T21:52:34.466Z,98.80
2022-08-12T21:55:08.243Z,99.00
2022-08-12T21:57:51.263Z,99.30
2022-08-12T22:00:32.123Z,99.50
2022-08-12T22:04:01.698Z,99.70
2022-08-12T22:06:31.554Z,99.90
2022-08-12T22:09:16.144Z,99.90
2022-08-12T22:11:56.266Z,99.90
2022-08-12T22:14:29.691Z,99.90
2022-08-12T22:17:01.412Z,99.90
2022-08-12T22:19:35.203Z,99.90
2022-08-12T22:22:05.208Z,99.90
2022-08-12T22:24:34.490Z,99.90
2022-08-12T22:27:08.353Z,99.90
2022-08-12T22:30:16.883Z,99.90
2022-08-12T22:32:49.802Z,99.90
2022-08-12T22:35:56.239Z,99.90
2022-08-12T22:38:23.599Z,99.90
2022-08-12T22:40:54.196Z,99.90
2022-08-12T22:44:00.369Z,99.90
2022-08-12T22:46:52.873Z,99.90
2022-08-12T22:49:36.507Z,99.90
2022-08-12T22:52:18.566Z,99.90
2022-08-12T22:55:03.509Z,99.90
2022-08-12T22:57:49.499Z,99.90
2022-08-12T23:00:27.943Z,99.90
2022-08-12T23:03:02.722Z,99.90
2022-08-12T23:05:57.405Z,99.90
2022-08-12T23:08:29.973Z,99.90
2022-08-12T23:11:00.778Z,99.90
2022-08-12T23:13:55.395Z,99.90
2022-08-12T23:16:31.742Z,99.90
2022-08-12T23:19:10.467Z,99.90
2022-08-12T23:22:06.714Z,99.90
2022-08-12T23:24:54.119Z,99.90
2022-08-12T23:27:50.865Z,99.90
2022-08-12T23:30:32.408Z,99.90
2022-08-12T23:33:04.890Z,99.90
2022-08-12T23:35:53.883Z,99.90
2022-08-12T23:38:33.101Z,99.90
2022-08-12T23:41:05.649Z,99.90
2022-08-12T23:43:39.146Z,99.90
2022-08-12T23:46:19.411Z,99.90
2022-08-12T23:48:51.625Z,99.90
2022-08-12T23:51:24.588Z,99.90
2022-08-12T23:53:56.350Z,99.90
2022-08-12T23:56:32.774Z,99.90
2022-08-12T23:59:01.822Z,99.90
